sensor_id;sensor_type;location;lat;lon;timestamp;P1;durP1;ratioP1;P2;durP2;ratioP2
57297;SDS011;43147;50.972;18.210;2023-10-31T00:01:34;11.10;;;6.90;;
57297;SDS011;43147;50.972;18.210;2023-10-31T00:04:00;9.70;;;6.30;;
57297;SDS011;43147;50.972;18.210;2023-10-31T00:06:25;13.00;;;6.90;;
57297;SDS011;43147;50.972;18.210;2023-10-31T00:08:51;12.20;;;6.90;;
57297;SDS011;43147;50.972;18.210;2023-10-31T00:11:17;10.90;;;6.90;;
57297;SDS011;43147;50.972;18.210;2023-10-31T00:13:42;16.30;;;6.70;;
57297;SDS011;43147;50.972;18.210;2023-10-31T00:16:08;9.40;;;6.10;;
57297;SDS011;43147;50.972;18.210;2023-10-31T00:18:34;13.80;;;6.30;;
57297;SDS011;43147;50.972;18.210;2023-10-31T00:20:59;15.80;;;6.90;;
57297;SDS011;43147;50.972;18.210;2023-10-31T00:23:25;10.70;;;6.90;;
57297;SDS011;43147;50.972;18.210;2023-10-31T00:25:51;11.70;;;6.50;;
57297;SDS011;43147;50.972;18.210;2023-10-31T00:28:16;12.30;;;6.80;;
57297;SDS011;43147;50.972;18.210;2023-10-31T00:30:42;14.30;;;7.00;;
57297;SDS011;43147;50.972;18.210;2023-10-31T00:33:08;13.00;;;7.30;;
57297;SDS011;43147;50.972;18.210;2023-10-31T00:35:35;12.40;;;7.60;;
57297;SDS011;43147;50.972;18.210;2023-10-31T00:38:01;9.50;;;6.60;;
57297;SDS011;43147;50.972;18.210;2023-10-31T00:40:26;9.80;;;7.00;;
57297;SDS011;43147;50.972;18.210;2023-10-31T00:42:52;10.40;;;6.60;;
57297;SDS011;43147;50.972;18.210;2023-10-31T00:45:17;13.20;;;6.30;;
57297;SDS011;43147;50.972;18.210;2023-10-31T00:47:43;15.60;;;6.40;;
57297;SDS011;43147;50.972;18.210;2023-10-31T00:50:08;12.00;;;6.30;;
57297;SDS011;43147;50.972;18.210;2023-10-31T00:52:34;13.30;;;7.10;;
57297;SDS011;43147;50.972;18.210;2023-10-31T00:55:00;12.90;;;6.60;;
57297;SDS011;43147;50.972;18.210;2023-10-31T00:57:25;13.50;;;6.40;;
57297;SDS011;43147;50.972;18.210;2023-10-31T00:59:51;12.30;;;5.80;;
57297;SDS011;43147;50.972;18.210;2023-10-31T01:02:16;12.00;;;5.90;;
57297;SDS011;43147;50.972;18.210;2023-10-31T01:04:42;12.00;;;6.50;;
57297;SDS011;43147;50.972;18.210;2023-10-31T01:07:07;10.60;;;6.00;;
57297;SDS011;43147;50.972;18.210;2023-10-31T01:09:37;14.10;;;5.80;;
57297;SDS011;43147;50.972;18.210;2023-10-31T01:12:04;10.20;;;5.30;;
57297;SDS011;43147;50.972;18.210;2023-10-31T01:14:30;9.00;;;6.10;;
57297;SDS011;43147;50.972;18.210;2023-10-31T01:16:55;13.20;;;5.80;;
57297;SDS011;43147;50.972;18.210;2023-10-31T01:19:23;16.00;;;5.60;;
57297;SDS011;43147;50.972;18.210;2023-10-31T01:21:49;8.80;;;5.60;;
57297;SDS011;43147;50.972;18.210;2023-10-31T01:24:14;8.80;;;5.60;;
57297;SDS011;43147;50.972;18.210;2023-10-31T01:26:40;10.40;;;5.60;;
57297;SDS011;43147;50.972;18.210;2023-10-31T01:29:05;12.30;;;5.70;;
57297;SDS011;43147;50.972;18.210;2023-10-31T01:31:31;14.80;;;6.20;;
57297;SDS011;43147;50.972;18.210;2023-10-31T01:33:57;10.50;;;6.20;;
57297;SDS011;43147;50.972;18.210;2023-10-31T01:36:26;9.20;;;5.60;;
57297;SDS011;43147;50.972;18.210;2023-10-31T01:38:52;12.20;;;6.50;;
57297;SDS011;43147;50.972;18.210;2023-10-31T01:41:17;15.00;;;6.40;;
57297;SDS011;43147;50.972;18.210;2023-10-31T01:43:43;12.90;;;6.30;;
57297;SDS011;43147;50.972;18.210;2023-10-31T01:46:08;12.70;;;6.70;;
57297;SDS011;43147;50.972;18.210;2023-10-31T01:48:34;11.80;;;5.90;;
57297;SDS011;43147;50.972;18.210;2023-10-31T01:51:00;11.20;;;6.50;;
57297;SDS011;43147;50.972;18.210;2023-10-31T01:53:28;15.20;;;5.90;;
57297;SDS011;43147;50.972;18.210;2023-10-31T01:55:54;9.10;;;5.90;;
57297;SDS011;43147;50.972;18.210;2023-10-31T01:58:23;10.30;;;5.60;;
57297;SDS011;43147;50.972;18.210;2023-10-31T02:00:51;11.40;;;6.10;;
57297;SDS011;43147;50.972;18.210;2023-10-31T02:03:17;10.40;;;6.20;;
57297;SDS011;43147;50.972;18.210;2023-10-31T02:05:43;8.90;;;5.70;;
57297;SDS011;43147;50.972;18.210;2023-10-31T02:08:09;10.30;;;6.30;;
57297;SDS011;43147;50.972;18.210;2023-10-31T02:10:34;13.30;;;6.10;;
57297;SDS011;43147;50.972;18.210;2023-10-31T02:13:18;7.70;;;5.30;;
57297;SDS011;43147;50.972;18.210;2023-10-31T02:15:44;11.50;;;6.00;;
57297;SDS011;43147;50.972;18.210;2023-10-31T02:18:10;9.60;;;5.10;;
57297;SDS011;43147;50.972;18.210;2023-10-31T02:20:36;9.20;;;4.90;;
57297;SDS011;43147;50.972;18.210;2023-10-31T02:23:02;9.50;;;4.90;;
57297;SDS011;43147;50.972;18.210;2023-10-31T02:25:28;7.30;;;4.20;;
57297;SDS011;43147;50.972;18.210;2023-10-31T02:27:54;9.50;;;5.00;;
57297;SDS011;43147;50.972;18.210;2023-10-31T02:30:19;8.40;;;4.90;;
57297;SDS011;43147;50.972;18.210;2023-10-31T02:32:45;14.60;;;5.40;;
57297;SDS011;43147;50.972;18.210;2023-10-31T02:35:10;10.20;;;5.00;;
57297;SDS011;43147;50.972;18.210;2023-10-31T02:37:36;10.40;;;5.00;;
57297;SDS011;43147;50.972;18.210;2023-10-31T02:40:02;10.90;;;4.70;;
57297;SDS011;43147;50.972;18.210;2023-10-31T02:42:28;9.60;;;4.60;;
57297;SDS011;43147;50.972;18.210;2023-10-31T02:44:54;8.10;;;3.90;;
57297;SDS011;43147;50.972;18.210;2023-10-31T02:47:20;8.60;;;4.00;;
57297;SDS011;43147;50.972;18.210;2023-10-31T02:49:46;8.20;;;3.40;;
57297;SDS011;43147;50.972;18.210;2023-10-31T02:52:12;9.00;;;3.80;;
57297;SDS011;43147;50.972;18.210;2023-10-31T02:54:37;11.10;;;4.40;;
57297;SDS011;43147;50.972;18.210;2023-10-31T02:57:03;9.30;;;3.90;;
57297;SDS011;43147;50.972;18.210;2023-10-31T02:59:29;8.50;;;3.60;;
57297;SDS011;43147;50.972;18.210;2023-10-31T03:01:55;6.70;;;3.70;;
57297;SDS011;43147;50.972;18.210;2023-10-31T03:04:21;7.30;;;3.30;;
57297;SDS011;43147;50.972;18.210;2023-10-31T03:06:47;8.90;;;3.70;;
57297;SDS011;43147;50.972;18.210;2023-10-31T03:09:13;10.40;;;3.60;;
57297;SDS011;43147;50.972;18.210;2023-10-31T03:11:38;9.90;;;3.60;;
57297;SDS011;43147;50.972;18.210;2023-10-31T03:14:04;9.20;;;3.40;;
57297;SDS011;43147;50.972;18.210;2023-10-31T03:16:29;12.90;;;2.90;;
57297;SDS011;43147;50.972;18.210;2023-10-31T03:18:55;7.60;;;2.70;;
57297;SDS011;43147;50.972;18.210;2023-10-31T03:21:21;7.70;;;3.40;;
57297;SDS011;43147;50.972;18.210;2023-10-31T03:23:47;9.50;;;2.90;;
57297;SDS011;43147;50.972;18.210;2023-10-31T03:26:15;8.70;;;2.90;;
57297;SDS011;43147;50.972;18.210;2023-10-31T03:28:42;6.60;;;2.90;;
57297;SDS011;43147;50.972;18.210;2023-10-31T03:31:08;7.30;;;2.60;;
57297;SDS011;43147;50.972;18.210;2023-10-31T03:33:34;7.40;;;3.10;;
57297;SDS011;43147;50.972;18.210;2023-10-31T03:36:00;10.60;;;2.80;;
57297;SDS011;43147;50.972;18.210;2023-10-31T03:38:25;5.50;;;2.90;;
57297;SDS011;43147;50.972;18.210;2023-10-31T03:40:51;5.30;;;3.00;;
57297;SDS011;43147;50.972;18.210;2023-10-31T03:43:16;7.00;;;2.70;;
57297;SDS011;43147;50.972;18.210;2023-10-31T03:45:42;6.20;;;2.50;;
57297;SDS011;43147;50.972;18.210;2023-10-31T03:48:07;8.10;;;3.10;;
57297;SDS011;43147;50.972;18.210;2023-10-31T03:50:33;6.20;;;2.60;;
57297;SDS011;43147;50.972;18.210;2023-10-31T03:52:58;4.40;;;2.40;;
57297;SDS011;43147;50.972;18.210;2023-10-31T03:55:24;5.00;;;2.10;;
57297;SDS011;43147;50.972;18.210;2023-10-31T03:57:50;6.40;;;2.50;;
57297;SDS011;43147;50.972;18.210;2023-10-31T04:00:16;4.50;;;2.30;;
57297;SDS011;43147;50.972;18.210;2023-10-31T04:02:41;5.90;;;2.10;;
57297;SDS011;43147;50.972;18.210;2023-10-31T04:05:07;9.70;;;2.30;;
57297;SDS011;43147;50.972;18.210;2023-10-31T04:07:33;9.80;;;2.60;;
57297;SDS011;43147;50.972;18.210;2023-10-31T04:09:59;5.20;;;2.20;;
57297;SDS011;43147;50.972;18.210;2023-10-31T04:12:24;5.20;;;2.50;;
57297;SDS011;43147;50.972;18.210;2023-10-31T04:14:50;3.20;;;2.00;;
57297;SDS011;43147;50.972;18.210;2023-10-31T04:17:16;4.70;;;1.90;;
57297;SDS011;43147;50.972;18.210;2023-10-31T04:19:41;3.40;;;1.80;;
57297;SDS011;43147;50.972;18.210;2023-10-31T04:22:07;4.90;;;2.20;;
57297;SDS011;43147;50.972;18.210;2023-10-31T04:24:32;6.40;;;2.30;;
57297;SDS011;43147;50.972;18.210;2023-10-31T04:26:58;3.80;;;1.60;;
57297;SDS011;43147;50.972;18.210;2023-10-31T04:29:26;4.10;;;2.20;;
57297;SDS011;43147;50.972;18.210;2023-10-31T04:31:51;4.00;;;1.90;;
57297;SDS011;43147;50.972;18.210;2023-10-31T04:34:17;7.00;;;1.80;;
57297;SDS011;43147;50.972;18.210;2023-10-31T04:36:43;8.50;;;2.40;;
57297;SDS011;43147;50.972;18.210;2023-10-31T04:39:09;3.90;;;2.30;;
57297;SDS011;43147;50.972;18.210;2023-10-31T04:41:34;8.30;;;2.50;;
57297;SDS011;43147;50.972;18.210;2023-10-31T04:44:00;6.40;;;2.10;;
57297;SDS011;43147;50.972;18.210;2023-10-31T04:46:26;5.00;;;2.00;;
57297;SDS011;43147;50.972;18.210;2023-10-31T04:48:54;6.00;;;2.70;;
57297;SDS011;43147;50.972;18.210;2023-10-31T04:51:19;7.40;;;3.00;;
57297;SDS011;43147;50.972;18.210;2023-10-31T04:53:45;5.20;;;2.80;;
57297;SDS011;43147;50.972;18.210;2023-10-31T04:56:14;6.50;;;2.70;;
57297;SDS011;43147;50.972;18.210;2023-10-31T04:58:41;7.00;;;2.30;;
57297;SDS011;43147;50.972;18.210;2023-10-31T05:01:10;10.50;;;2.30;;
57297;SDS011;43147;50.972;18.210;2023-10-31T05:03:37;8.50;;;2.90;;
57297;SDS011;43147;50.972;18.210;2023-10-31T05:06:03;5.40;;;2.50;;
57297;SDS011;43147;50.972;18.210;2023-10-31T05:08:30;8.00;;;2.60;;
57297;SDS011;43147;50.972;18.210;2023-10-31T05:10:56;7.70;;;2.70;;
57297;SDS011;43147;50.972;18.210;2023-10-31T05:13:23;5.60;;;2.50;;
57297;SDS011;43147;50.972;18.210;2023-10-31T05:15:48;7.20;;;2.10;;
57297;SDS011;43147;50.972;18.210;2023-10-31T05:18:14;5.00;;;2.20;;
57297;SDS011;43147;50.972;18.210;2023-10-31T05:20:40;6.60;;;2.60;;
57297;SDS011;43147;50.972;18.210;2023-10-31T05:23:06;5.80;;;2.60;;
57297;SDS011;43147;50.972;18.210;2023-10-31T05:25:32;8.00;;;2.40;;
57297;SDS011;43147;50.972;18.210;2023-10-31T05:27:57;6.10;;;2.30;;
57297;SDS011;43147;50.972;18.210;2023-10-31T05:30:24;7.20;;;2.40;;
57297;SDS011;43147;50.972;18.210;2023-10-31T05:32:51;6.30;;;2.70;;
57297;SDS011;43147;50.972;18.210;2023-10-31T05:35:17;5.60;;;2.80;;
57297;SDS011;43147;50.972;18.210;2023-10-31T05:37:42;7.50;;;2.90;;
57297;SDS011;43147;50.972;18.210;2023-10-31T05:40:08;6.50;;;2.80;;
57297;SDS011;43147;50.972;18.210;2023-10-31T05:42:35;7.00;;;2.90;;
57297;SDS011;43147;50.972;18.210;2023-10-31T05:45:00;8.60;;;2.60;;
57297;SDS011;43147;50.972;18.210;2023-10-31T05:47:26;7.60;;;2.50;;
57297;SDS011;43147;50.972;18.210;2023-10-31T05:49:53;8.30;;;2.60;;
57297;SDS011;43147;50.972;18.210;2023-10-31T05:52:18;9.00;;;2.60;;
57297;SDS011;43147;50.972;18.210;2023-10-31T05:54:44;10.30;;;2.80;;
57297;SDS011;43147;50.972;18.210;2023-10-31T05:57:09;5.70;;;2.50;;
57297;SDS011;43147;50.972;18.210;2023-10-31T05:59:35;5.70;;;2.50;;
57297;SDS011;43147;50.972;18.210;2023-10-31T06:02:00;7.60;;;2.70;;
57297;SDS011;43147;50.972;18.210;2023-10-31T06:04:26;5.30;;;2.70;;
57297;SDS011;43147;50.972;18.210;2023-10-31T06:06:51;6.50;;;2.90;;
57297;SDS011;43147;50.972;18.210;2023-10-31T06:09:17;4.70;;;2.40;;
57297;SDS011;43147;50.972;18.210;2023-10-31T06:11:42;8.60;;;2.40;;
57297;SDS011;43147;50.972;18.210;2023-10-31T06:14:09;5.50;;;2.40;;
57297;SDS011;43147;50.972;18.210;2023-10-31T06:16:42;6.50;;;2.40;;
57297;SDS011;43147;50.972;18.210;2023-10-31T06:19:09;8.70;;;2.60;;
57297;SDS011;43147;50.972;18.210;2023-10-31T06:21:35;5.50;;;2.50;;
57297;SDS011;43147;50.972;18.210;2023-10-31T06:24:00;9.80;;;3.20;;
57297;SDS011;43147;50.972;18.210;2023-10-31T06:26:26;8.20;;;3.00;;
57297;SDS011;43147;50.972;18.210;2023-10-31T06:28:52;6.60;;;2.40;;
57297;SDS011;43147;50.972;18.210;2023-10-31T06:31:17;12.10;;;2.70;;
57297;SDS011;43147;50.972;18.210;2023-10-31T06:33:42;9.10;;;3.00;;
57297;SDS011;43147;50.972;18.210;2023-10-31T06:36:08;7.70;;;3.00;;
57297;SDS011;43147;50.972;18.210;2023-10-31T06:38:33;7.70;;;3.40;;
57297;SDS011;43147;50.972;18.210;2023-10-31T06:40:59;4.00;;;2.60;;
57297;SDS011;43147;50.972;18.210;2023-10-31T06:43:25;8.00;;;3.00;;
57297;SDS011;43147;50.972;18.210;2023-10-31T06:45:50;5.30;;;3.40;;
57297;SDS011;43147;50.972;18.210;2023-10-31T06:48:16;13.30;;;3.20;;
57297;SDS011;43147;50.972;18.210;2023-10-31T06:50:42;13.20;;;3.50;;
57297;SDS011;43147;50.972;18.210;2023-10-31T06:53:07;6.60;;;3.40;;
57297;SDS011;43147;50.972;18.210;2023-10-31T06:55:32;10.10;;;3.30;;
57297;SDS011;43147;50.972;18.210;2023-10-31T06:57:58;6.00;;;3.80;;
57297;SDS011;43147;50.972;18.210;2023-10-31T07:00:23;9.50;;;3.90;;
57297;SDS011;43147;50.972;18.210;2023-10-31T07:02:49;9.70;;;3.70;;
57297;SDS011;43147;50.972;18.210;2023-10-31T07:05:14;9.20;;;3.90;;
57297;SDS011;43147;50.972;18.210;2023-10-31T07:07:41;8.90;;;4.00;;
57297;SDS011;43147;50.972;18.210;2023-10-31T07:10:07;11.60;;;3.80;;
57297;SDS011;43147;50.972;18.210;2023-10-31T07:12:32;15.00;;;4.50;;
57297;SDS011;43147;50.972;18.210;2023-10-31T07:14:58;11.40;;;5.00;;
57297;SDS011;43147;50.972;18.210;2023-10-31T07:17:25;9.00;;;4.20;;
57297;SDS011;43147;50.972;18.210;2023-10-31T07:19:51;5.20;;;3.70;;
57297;SDS011;43147;50.972;18.210;2023-10-31T07:22:16;12.10;;;4.40;;
57297;SDS011;43147;50.972;18.210;2023-10-31T07:24:42;8.70;;;4.10;;
57297;SDS011;43147;50.972;18.210;2023-10-31T07:27:08;16.40;;;4.50;;
57297;SDS011;43147;50.972;18.210;2023-10-31T07:29:34;9.00;;;4.60;;
57297;SDS011;43147;50.972;18.210;2023-10-31T07:32:00;8.70;;;4.80;;
57297;SDS011;43147;50.972;18.210;2023-10-31T07:34:26;8.90;;;4.60;;
57297;SDS011;43147;50.972;18.210;2023-10-31T07:36:54;11.30;;;5.00;;
57297;SDS011;43147;50.972;18.210;2023-10-31T07:39:19;12.30;;;5.30;;
57297;SDS011;43147;50.972;18.210;2023-10-31T07:41:45;11.40;;;5.60;;
57297;SDS011;43147;50.972;18.210;2023-10-31T07:44:10;9.50;;;4.90;;
57297;SDS011;43147;50.972;18.210;2023-10-31T07:46:36;9.60;;;4.80;;
57297;SDS011;43147;50.972;18.210;2023-10-31T07:49:01;8.50;;;4.70;;
57297;SDS011;43147;50.972;18.210;2023-10-31T07:51:26;13.50;;;5.10;;
57297;SDS011;43147;50.972;18.210;2023-10-31T07:53:52;9.30;;;4.70;;
57297;SDS011;43147;50.972;18.210;2023-10-31T07:56:18;7.90;;;4.40;;
57297;SDS011;43147;50.972;18.210;2023-10-31T07:58:48;14.40;;;5.10;;
57297;SDS011;43147;50.972;18.210;2023-10-31T08:01:16;7.00;;;4.30;;
57297;SDS011;43147;50.972;18.210;2023-10-31T08:03:48;6.40;;;4.70;;
57297;SDS011;43147;50.972;18.210;2023-10-31T08:06:13;12.60;;;5.10;;
57297;SDS011;43147;50.972;18.210;2023-10-31T08:08:39;9.80;;;4.60;;
57297;SDS011;43147;50.972;18.210;2023-10-31T08:11:08;9.20;;;4.40;;
57297;SDS011;43147;50.972;18.210;2023-10-31T08:13:35;12.10;;;3.90;;
57297;SDS011;43147;50.972;18.210;2023-10-31T08:16:03;9.20;;;4.10;;
57297;SDS011;43147;50.972;18.210;2023-10-31T08:18:31;23.60;;;9.10;;
57297;SDS011;43147;50.972;18.210;2023-10-31T08:20:57;17.10;;;6.50;;
57297;SDS011;43147;50.972;18.210;2023-10-31T08:23:22;7.20;;;4.70;;
57297;SDS011;43147;50.972;18.210;2023-10-31T08:25:48;9.20;;;6.00;;
57297;SDS011;43147;50.972;18.210;2023-10-31T08:28:14;9.80;;;5.90;;
57297;SDS011;43147;50.972;18.210;2023-10-31T08:30:40;6.90;;;4.90;;
57297;SDS011;43147;50.972;18.210;2023-10-31T08:33:05;9.80;;;6.40;;
57297;SDS011;43147;50.972;18.210;2023-10-31T08:35:31;9.60;;;5.30;;
57297;SDS011;43147;50.972;18.210;2023-10-31T08:37:56;10.90;;;4.10;;
57297;SDS011;43147;50.972;18.210;2023-10-31T08:40:22;8.40;;;4.50;;
57297;SDS011;43147;50.972;18.210;2023-10-31T08:42:48;13.30;;;4.50;;
57297;SDS011;43147;50.972;18.210;2023-10-31T08:45:13;7.70;;;4.40;;
57297;SDS011;43147;50.972;18.210;2023-10-31T08:47:39;7.30;;;4.40;;
57297;SDS011;43147;50.972;18.210;2023-10-31T08:50:05;5.40;;;4.20;;
57297;SDS011;43147;50.972;18.210;2023-10-31T08:52:33;5.00;;;3.60;;
57297;SDS011;43147;50.972;18.210;2023-10-31T08:54:59;4.70;;;4.20;;
57297;SDS011;43147;50.972;18.210;2023-10-31T08:57:25;4.90;;;3.60;;
57297;SDS011;43147;50.972;18.210;2023-10-31T08:59:50;7.80;;;3.50;;
57297;SDS011;43147;50.972;18.210;2023-10-31T09:02:16;4.80;;;4.30;;
57297;SDS011;43147;50.972;18.210;2023-10-31T09:04:42;10.30;;;4.30;;
57297;SDS011;43147;50.972;18.210;2023-10-31T09:07:07;7.30;;;5.70;;
57297;SDS011;43147;50.972;18.210;2023-10-31T09:09:33;7.90;;;5.70;;
57297;SDS011;43147;50.972;18.210;2023-10-31T09:11:59;8.80;;;5.10;;
57297;SDS011;43147;50.972;18.210;2023-10-31T09:14:24;5.10;;;4.30;;
57297;SDS011;43147;50.972;18.210;2023-10-31T09:16:50;10.10;;;5.00;;
57297;SDS011;43147;50.972;18.210;2023-10-31T09:19:15;5.20;;;3.80;;
57297;SDS011;43147;50.972;18.210;2023-10-31T09:21:41;5.00;;;3.60;;
57297;SDS011;43147;50.972;18.210;2023-10-31T09:24:07;3.70;;;3.40;;
57297;SDS011;43147;50.972;18.210;2023-10-31T09:26:33;5.60;;;3.50;;
57297;SDS011;43147;50.972;18.210;2023-10-31T09:28:58;3.40;;;3.10;;
57297;SDS011;43147;50.972;18.210;2023-10-31T09:31:24;4.20;;;2.80;;
57297;SDS011;43147;50.972;18.210;2023-10-31T09:33:50;3.10;;;2.80;;
57297;SDS011;43147;50.972;18.210;2023-10-31T09:36:15;4.20;;;3.90;;
57297;SDS011;43147;50.972;18.210;2023-10-31T09:38:41;3.70;;;3.40;;
57297;SDS011;43147;50.972;18.210;2023-10-31T09:41:07;3.60;;;3.30;;
57297;SDS011;43147;50.972;18.210;2023-10-31T09:43:33;2.90;;;2.70;;
57297;SDS011;43147;50.972;18.210;2023-10-31T09:45:58;3.40;;;2.90;;
57297;SDS011;43147;50.972;18.210;2023-10-31T09:48:25;3.90;;;3.50;;
57297;SDS011;43147;50.972;18.210;2023-10-31T09:50:51;5.00;;;3.40;;
57297;SDS011;43147;50.972;18.210;2023-10-31T09:53:18;4.20;;;3.70;;
57297;SDS011;43147;50.972;18.210;2023-10-31T09:55:45;4.20;;;3.50;;
57297;SDS011;43147;50.972;18.210;2023-10-31T09:58:12;3.40;;;2.90;;
57297;SDS011;43147;50.972;18.210;2023-10-31T10:00:37;2.80;;;2.60;;
57297;SDS011;43147;50.972;18.210;2023-10-31T10:03:08;4.80;;;2.50;;
57297;SDS011;43147;50.972;18.210;2023-10-31T10:05:37;3.20;;;2.90;;
57297;SDS011;43147;50.972;18.210;2023-10-31T10:08:04;9.80;;;6.90;;
57297;SDS011;43147;50.972;18.210;2023-10-31T10:10:30;16.00;;;8.90;;
57297;SDS011;43147;50.972;18.210;2023-10-31T10:12:57;14.00;;;9.00;;
57297;SDS011;43147;50.972;18.210;2023-10-31T10:15:24;7.50;;;6.40;;
57297;SDS011;43147;50.972;18.210;2023-10-31T10:17:52;7.70;;;5.20;;
57297;SDS011;43147;50.972;18.210;2023-10-31T10:20:18;3.00;;;2.80;;
57297;SDS011;43147;50.972;18.210;2023-10-31T10:22:45;3.40;;;3.00;;
57297;SDS011;43147;50.972;18.210;2023-10-31T10:25:14;3.50;;;3.20;;
57297;SDS011;43147;50.972;18.210;2023-10-31T10:27:46;5.30;;;4.80;;
57297;SDS011;43147;50.972;18.210;2023-10-31T10:30:13;5.40;;;4.70;;
57297;SDS011;43147;50.972;18.210;2023-10-31T10:32:39;5.10;;;4.60;;
57297;SDS011;43147;50.972;18.210;2023-10-31T10:35:06;6.00;;;5.00;;
57297;SDS011;43147;50.972;18.210;2023-10-31T10:37:33;6.20;;;5.40;;
57297;SDS011;43147;50.972;18.210;2023-10-31T10:40:02;5.70;;;5.10;;
57297;SDS011;43147;50.972;18.210;2023-10-31T10:42:32;8.20;;;4.40;;
57297;SDS011;43147;50.972;18.210;2023-10-31T10:45:01;7.00;;;4.50;;
57297;SDS011;43147;50.972;18.210;2023-10-31T10:47:31;5.80;;;4.70;;
57297;SDS011;43147;50.972;18.210;2023-10-31T10:49:58;15.80;;;13.00;;
57297;SDS011;43147;50.972;18.210;2023-10-31T11:00:14;2.20;;;2.00;;
57297;SDS011;43147;50.972;18.210;2023-10-31T11:02:41;3.70;;;2.20;;
57297;SDS011;43147;50.972;18.210;2023-10-31T11:05:08;5.90;;;2.90;;
57297;SDS011;43147;50.972;18.210;2023-10-31T11:07:34;3.60;;;2.10;;
57297;SDS011;43147;50.972;18.210;2023-10-31T11:10:03;2.80;;;2.40;;
57297;SDS011;43147;50.972;18.210;2023-10-31T11:12:30;2.80;;;2.00;;
57297;SDS011;43147;50.972;18.210;2023-10-31T11:14:59;4.30;;;2.10;;
57297;SDS011;43147;50.972;18.210;2023-10-31T11:17:28;3.30;;;2.10;;
57297;SDS011;43147;50.972;18.210;2023-10-31T11:19:57;2.70;;;2.00;;
57297;SDS011;43147;50.972;18.210;2023-10-31T11:22:23;5.60;;;4.10;;
57297;SDS011;43147;50.972;18.210;2023-10-31T11:24:49;5.80;;;3.80;;
57297;SDS011;43147;50.972;18.210;2023-10-31T11:27:16;2.90;;;1.30;;
57297;SDS011;43147;50.972;18.210;2023-10-31T11:29:43;2.40;;;2.00;;
57297;SDS011;43147;50.972;18.210;2023-10-31T11:32:09;5.10;;;2.00;;
57297;SDS011;43147;50.972;18.210;2023-10-31T11:34:36;1.80;;;1.40;;
57297;SDS011;43147;50.972;18.210;2023-10-31T11:37:23;3.90;;;1.70;;
57297;SDS011;43147;50.972;18.210;2023-10-31T11:40:26;3.30;;;1.70;;
57297;SDS011;43147;50.972;18.210;2023-10-31T11:48:03;3.80;;;2.80;;
57297;SDS011;43147;50.972;18.210;2023-10-31T11:50:33;2.30;;;1.80;;
57297;SDS011;43147;50.972;18.210;2023-10-31T11:53:06;5.00;;;4.00;;
57297;SDS011;43147;50.972;18.210;2023-10-31T11:55:41;10.50;;;3.50;;
57297;SDS011;43147;50.972;18.210;2023-10-31T11:58:40;3.80;;;3.30;;
57297;SDS011;43147;50.972;18.210;2023-10-31T12:01:06;2.30;;;1.80;;
57297;SDS011;43147;50.972;18.210;2023-10-31T12:03:40;1.40;;;1.30;;
57297;SDS011;43147;50.972;18.210;2023-10-31T12:06:07;1.50;;;1.20;;
57297;SDS011;43147;50.972;18.210;2023-10-31T12:08:35;3.70;;;1.10;;
57297;SDS011;43147;50.972;18.210;2023-10-31T12:11:09;2.20;;;1.00;;
57297;SDS011;43147;50.972;18.210;2023-10-31T12:13:37;1.90;;;1.60;;
57297;SDS011;43147;50.972;18.210;2023-10-31T12:16:05;3.10;;;2.20;;
57297;SDS011;43147;50.972;18.210;2023-10-31T12:18:35;2.70;;;1.50;;
57297;SDS011;43147;50.972;18.210;2023-10-31T12:21:01;2.70;;;1.20;;
57297;SDS011;43147;50.972;18.210;2023-10-31T12:23:29;2.20;;;0.90;;
57297;SDS011;43147;50.972;18.210;2023-10-31T12:25:54;2.10;;;1.00;;
57297;SDS011;43147;50.972;18.210;2023-10-31T12:28:23;2.90;;;1.00;;
57297;SDS011;43147;50.972;18.210;2023-10-31T12:30:50;1.80;;;1.50;;
57297;SDS011;43147;50.972;18.210;2023-10-31T12:33:19;1.90;;;1.50;;
57297;SDS011;43147;50.972;18.210;2023-10-31T12:35:47;1.20;;;1.00;;
57297;SDS011;43147;50.972;18.210;2023-10-31T12:38:13;2.50;;;1.60;;
57297;SDS011;43147;50.972;18.210;2023-10-31T12:40:39;2.70;;;0.80;;
57297;SDS011;43147;50.972;18.210;2023-10-31T12:43:06;1.80;;;1.20;;
57297;SDS011;43147;50.972;18.210;2023-10-31T12:45:32;1.40;;;0.90;;
57297;SDS011;43147;50.972;18.210;2023-10-31T12:48:02;1.60;;;0.80;;
57297;SDS011;43147;50.972;18.210;2023-10-31T12:50:30;1.10;;;1.00;;
57297;SDS011;43147;50.972;18.210;2023-10-31T12:52:56;1.10;;;1.00;;
57297;SDS011;43147;50.972;18.210;2023-10-31T12:55:25;2.70;;;1.50;;
57297;SDS011;43147;50.972;18.210;2023-10-31T12:57:53;1.70;;;1.50;;
57297;SDS011;43147;50.972;18.210;2023-10-31T13:00:19;2.30;;;2.10;;
57297;SDS011;43147;50.972;18.210;2023-10-31T13:03:01;2.40;;;1.80;;
57297;SDS011;43147;50.972;18.210;2023-10-31T13:05:27;2.60;;;1.80;;
57297;SDS011;43147;50.972;18.210;2023-10-31T13:07:55;7.80;;;2.90;;
57297;SDS011;43147;50.972;18.210;2023-10-31T13:10:25;3.60;;;2.20;;
57297;SDS011;43147;50.972;18.210;2023-10-31T13:12:52;8.40;;;4.30;;
57297;SDS011;43147;50.972;18.210;2023-10-31T13:15:19;9.50;;;6.70;;
57297;SDS011;43147;50.972;18.210;2023-10-31T13:17:46;7.20;;;5.00;;
57297;SDS011;43147;50.972;18.210;2023-10-31T13:20:13;7.90;;;4.60;;
57297;SDS011;43147;50.972;18.210;2023-10-31T13:22:40;7.30;;;5.80;;
57297;SDS011;43147;50.972;18.210;2023-10-31T13:25:07;8.10;;;4.40;;
57297;SDS011;43147;50.972;18.210;2023-10-31T13:27:42;4.20;;;3.40;;
57297;SDS011;43147;50.972;18.210;2023-10-31T13:30:10;3.60;;;1.80;;
57297;SDS011;43147;50.972;18.210;2023-10-31T13:32:36;2.90;;;1.70;;
57297;SDS011;43147;50.972;18.210;2023-10-31T13:35:03;2.40;;;1.90;;
57297;SDS011;43147;50.972;18.210;2023-10-31T13:37:29;6.90;;;2.60;;
57297;SDS011;43147;50.972;18.210;2023-10-31T13:39:55;7.00;;;5.00;;
57297;SDS011;43147;50.972;18.210;2023-10-31T13:42:20;7.80;;;5.20;;
57297;SDS011;43147;50.972;18.210;2023-10-31T13:44:46;6.80;;;5.80;;
57297;SDS011;43147;50.972;18.210;2023-10-31T13:47:13;9.60;;;6.80;;
57297;SDS011;43147;50.972;18.210;2023-10-31T13:49:38;8.20;;;4.90;;
57297;SDS011;43147;50.972;18.210;2023-10-31T13:52:04;6.60;;;5.50;;
57297;SDS011;43147;50.972;18.210;2023-10-31T13:54:31;6.30;;;3.70;;
57297;SDS011;43147;50.972;18.210;2023-10-31T13:56:58;2.90;;;2.60;;
57297;SDS011;43147;50.972;18.210;2023-10-31T13:59:24;6.00;;;2.40;;
57297;SDS011;43147;50.972;18.210;2023-10-31T14:01:50;4.20;;;3.00;;
57297;SDS011;43147;50.972;18.210;2023-10-31T14:04:16;4.00;;;3.30;;
57297;SDS011;43147;50.972;18.210;2023-10-31T14:06:43;3.70;;;3.10;;
57297;SDS011;43147;50.972;18.210;2023-10-31T14:09:09;4.90;;;3.50;;
57297;SDS011;43147;50.972;18.210;2023-10-31T14:11:37;6.90;;;4.40;;
57297;SDS011;43147;50.972;18.210;2023-10-31T14:14:03;5.70;;;4.00;;
57297;SDS011;43147;50.972;18.210;2023-10-31T14:16:38;5.90;;;4.10;;
57297;SDS011;43147;50.972;18.210;2023-10-31T14:19:03;3.10;;;2.20;;
57297;SDS011;43147;50.972;18.210;2023-10-31T14:21:29;3.80;;;2.00;;
57297;SDS011;43147;50.972;18.210;2023-10-31T14:23:55;3.30;;;2.30;;
57297;SDS011;43147;50.972;18.210;2023-10-31T14:26:21;2.10;;;1.60;;
57297;SDS011;43147;50.972;18.210;2023-10-31T14:28:47;2.00;;;1.50;;
57297;SDS011;43147;50.972;18.210;2023-10-31T14:31:13;3.30;;;1.40;;
57297;SDS011;43147;50.972;18.210;2023-10-31T14:33:39;4.60;;;1.70;;
57297;SDS011;43147;50.972;18.210;2023-10-31T14:36:05;9.20;;;4.70;;
57297;SDS011;43147;50.972;18.210;2023-10-31T14:38:31;13.90;;;8.10;;
57297;SDS011;43147;50.972;18.210;2023-10-31T14:40:57;21.40;;;10.50;;